createdAt,value
2019-05-01T00:01:04.080Z,98907.09
2019-05-01T00:03:34.532Z,98906.40
2019-05-01T00:06:04.824Z,98913.48
2019-05-01T00:08:33.528Z,98912.25
2019-05-01T00:11:02.312Z,98908.07
2019-05-01T00:13:31.028Z,98905.32
2019-05-01T00:16:00.240Z,98903.53
2019-05-01T00:18:29.122Z,98898.09
2019-05-01T00:20:58.427Z,98902.60
2019-05-01T00:23:27.140Z,98900.22
2019-05-01T00:25:55.947Z,98898.09
2019-05-01T00:28:24.922Z,98897.17
2019-05-01T00:30:53.635Z,98905.26
2019-05-01T00:33:22.394Z,98900.03
2019-05-01T00:35:51.105Z,98903.63
2019-05-01T00:38:19.899Z,98896.17
2019-05-01T00:40:48.812Z,98898.27
2019-05-01T00:43:17.524Z,98899.48
2019-05-01T00:45:46.233Z,98898.25
2019-05-01T00:48:15.068Z,98892.95
2019-05-01T00:50:43.779Z,98888.02
2019-05-01T00:53:12.496Z,98885.27
2019-05-01T00:55:45.603Z,98889.40
2019-05-01T00:58:31.301Z,98886.78
2019-05-01T01:01:01.686Z,98889.33
2019-05-01T01:03:30.414Z,98886.26
2019-05-01T01:05:59.112Z,98881.63
2019-05-01T01:08:27.996Z,98890.85
2019-05-01T01:10:56.704Z,98884.70
2019-05-01T01:13:25.425Z,98882.94
2019-05-01T01:15:54.201Z,98882.58
2019-05-01T01:18:22.902Z,98877.19
2019-05-01T01:20:51.624Z,98880.41
2019-05-01T01:23:20.725Z,98880.31
2019-05-01T01:25:49.534Z,98882.80
2019-05-01T01:28:19.041Z,98878.09
2019-05-01T01:30:56.221Z,98876.25
2019-05-01T01:33:18.275Z,98881.70
2019-05-01T01:35:47.087Z,98874.08
2019-05-01T01:38:15.931Z,98870.06
2019-05-01T01:40:44.887Z,98880.95
2019-05-01T01:43:31.342Z,98880.42
2019-05-01T01:46:01.631Z,98876.05
2019-05-01T01:48:30.445Z,98876.58
2019-05-01T01:50:59.900Z,98869.06
2019-05-01T01:53:28.811Z,98871.42
2019-05-01T01:55:57.725Z,98871.42
2019-05-01T01:58:26.716Z,98864.45
2019-05-01T02:01:13.399Z,98867.58
2019-05-01T02:03:43.823Z,98871.89
2019-05-01T02:06:13.190Z,98876.10
2019-05-01T02:08:41.900Z,98875.45
2019-05-01T02:11:11.084Z,98875.92
2019-05-01T02:13:39.988Z,98871.48
2019-05-01T02:16:08.812Z,98875.91
2019-05-01T02:18:37.600Z,98877.06
2019-05-01T02:21:06.413Z,98875.81
2019-05-01T02:23:35.129Z,98880.51
2019-05-01T02:26:04.107Z,98881.66
2019-05-01T02:28:34.389Z,98875.72
2019-05-01T02:31:08.378Z,98874.22
2019-05-01T02:33:39.696Z,98879.44
2019-05-01T02:36:10.123Z,98892.42
2019-05-01T02:38:40.460Z,98892.68
2019-05-01T02:41:12.199Z,98890.88
2019-05-01T02:43:44.930Z,98893.64
2019-05-01T02:46:15.752Z,98894.73
2019-05-01T02:48:47.379Z,98896.25
2019-05-01T02:51:16.955Z,98896.75
2019-05-01T02:53:47.680Z,98897.41
2019-05-01T02:56:26.387Z,98892.84
2019-05-01T02:58:57.707Z,98893.52
2019-05-01T03:01:44.633Z,98894.63
2019-05-01T03:03:58.709Z,98894.27
2019-05-01T03:06:30.122Z,98893.02
2019-05-01T03:09:00.482Z,98888.53
2019-05-01T03:11:30.622Z,98893.33
2019-05-01T03:14:02.190Z,98883.90
2019-05-01T03:16:33.738Z,98884.98
2019-05-01T03:19:14.240Z,98888.95
2019-05-01T03:22:00.784Z,98888.23
2019-05-01T03:24:29.937Z,98892.91
2019-05-01T03:26:59.263Z,98894.95
2019-05-01T03:29:28.267Z,98895.27
2019-05-01T03:32:15.278Z,98904.66
2019-05-01T03:34:28.303Z,98906.05
2019-05-01T03:36:57.021Z,98901.37
2019-05-01T03:39:27.084Z,98911.21
2019-05-01T03:41:56.893Z,98909.96
2019-05-01T03:44:25.705Z,98910.52
2019-05-01T03:46:54.798Z,98907.19
2019-05-01T03:49:23.605Z,98899.84
2019-05-01T03:51:52.477Z,98899.78
2019-05-01T03:54:21.774Z,98898.06
2019-05-01T03:56:50.588Z,98898.34
2019-05-01T03:59:19.704Z,98899.14
2019-05-01T04:01:50.121Z,98900.26
2019-05-01T04:04:20.506Z,98903.88
2019-05-01T04:06:49.625Z,98897.32
2019-05-01T04:09:18.627Z,98895.64
2019-05-01T04:11:47.736Z,98898.83
2019-05-01T04:14:16.549Z,98901.52
2019-05-01T04:16:47.299Z,98894.61
2019-05-01T04:22:29.913Z,98885.45
2019-05-01T04:24:59.034Z,98887.92
2019-05-01T04:27:29.516Z,98888.87
2019-05-01T04:30:01.024Z,98897.72
2019-05-01T04:32:31.514Z,98895.27
2019-05-01T04:35:18.853Z,98908.63
2019-05-01T04:37:47.893Z,98905.64
2019-05-01T04:40:19.035Z,98916.70
2019-05-01T04:42:47.457Z,98912.52
2019-05-01T04:45:16.982Z,98922.59
2019-05-01T04:47:45.717Z,98922.66
2019-05-01T04:50:14.646Z,98930.20
2019-05-01T04:52:43.977Z,98937.58
2019-05-01T04:55:12.792Z,98936.73
2019-05-01T04:57:42.451Z,98927.37
2019-05-01T05:00:11.410Z,98926.27
2019-05-01T05:02:42.236Z,98922.56
2019-05-01T05:05:12.880Z,98932.50
2019-05-01T05:07:42.195Z,98925.81
2019-05-01T05:10:10.906Z,98924.98
2019-05-01T05:12:45.518Z,98927.21
2019-05-01T05:15:19.855Z,98927.34
2019-05-01T05:17:48.776Z,98920.36
2019-05-01T05:20:17.831Z,98916.98
2019-05-01T05:22:46.865Z,98919.27
2019-05-01T05:25:15.688Z,98924.39
2019-05-01T05:27:45.940Z,98922.92
2019-05-01T05:30:14.792Z,98920.23
2019-05-01T05:32:44.690Z,98919.09
2019-05-01T05:35:15.158Z,98919.78
2019-05-01T05:37:57.310Z,98919.66
2019-05-01T05:40:30.122Z,98916.88
2019-05-01T05:42:59.246Z,98910.63
2019-05-01T05:45:28.106Z,98906.30
2019-05-01T05:47:56.827Z,98909.27
2019-05-01T05:50:27.631Z,98915.03
2019-05-01T05:53:04.018Z,98913.27
2019-05-01T05:55:37.714Z,98920.28
2019-05-01T05:58:10.937Z,98926.83
2019-05-01T06:00:59.140Z,98916.59
2019-05-01T06:03:48.777Z,98916.33
2019-05-01T06:06:21.972Z,98916.88
2019-05-01T06:08:56.302Z,98922.16
2019-05-01T06:11:35.473Z,98915.97
2019-05-01T06:14:15.359Z,98917.29
2019-05-01T06:16:52.141Z,98917.08
2019-05-01T06:19:39.569Z,98927.02
2019-05-01T06:22:13.540Z,98928.12
2019-05-01T06:24:47.286Z,98929.22
2019-05-01T06:27:16.914Z,98924.85
2019-05-01T06:29:45.955Z,98927.23
2019-05-01T06:32:15.011Z,98929.68
2019-05-01T06:34:44.000Z,98933.86
2019-05-01T06:37:12.817Z,98934.09
2019-05-01T06:39:42.768Z,98937.39
2019-05-01T06:42:15.190Z,98930.77
2019-05-01T06:44:54.760Z,98929.38
2019-05-01T06:47:38.315Z,98925.91
2019-05-01T06:50:26.116Z,98930.08
2019-05-01T06:52:55.136Z,98929.37
2019-05-01T06:55:27.201Z,98922.41
2019-05-01T06:57:54.936Z,98926.06
2019-05-01T07:00:23.665Z,98919.84
2019-05-01T07:02:55.081Z,98925.79
2019-05-01T07:05:24.577Z,98916.72
2019-05-01T07:07:55.160Z,98921.17
2019-05-01T07:10:31.421Z,98914.30
2019-05-01T07:12:59.946Z,98922.66
2019-05-01T07:15:28.465Z,98926.59
2019-05-01T07:17:57.593Z,98928.31
2019-05-01T07:20:34.195Z,98926.95
2019-05-01T07:23:03.110Z,98914.74
2019-05-01T07:25:34.947Z,98924.80
2019-05-01T07:28:02.339Z,98916.92
2019-05-01T07:30:43.064Z,98922.61
2019-05-01T07:33:16.761Z,98912.81
2019-05-01T07:35:45.128Z,98916.02
2019-05-01T07:38:13.879Z,98913.47
2019-05-01T07:40:43.195Z,98915.17
2019-05-01T07:43:23.926Z,98917.48
2019-05-01T07:46:04.159Z,98911.69
2019-05-01T07:48:41.291Z,98907.45
2019-05-01T07:51:08.911Z,98911.28
2019-05-01T07:53:38.200Z,98913.29
2019-05-01T07:56:07.823Z,98907.70
2019-05-01T07:58:37.899Z,98903.44
2019-05-01T08:01:18.219Z,98903.98
2019-05-01T08:03:45.024Z,98904.02
2019-05-01T08:06:16.393Z,98901.17
2019-05-01T08:08:44.178Z,98893.05
2019-05-01T08:11:13.796Z,98894.97
2019-05-01T08:13:43.562Z,98889.84
2019-05-01T08:16:12.288Z,98893.63
2019-05-01T08:18:45.683Z,98882.98
2019-05-01T08:21:34.374Z,98874.42
2019-05-01T08:24:04.567Z,98873.64
2019-05-01T08:26:33.290Z,98868.13
2019-05-01T08:29:19.776Z,98864.53
2019-05-01T08:31:52.834Z,98869.05
2019-05-01T08:34:33.405Z,98870.67
2019-05-01T08:37:02.117Z,98865.23
2019-05-01T08:39:30.862Z,98860.61
2019-05-01T08:42:02.925Z,98863.70
2019-05-01T08:44:31.744Z,98859.99
2019-05-01T08:47:14.487Z,98865.52
2019-05-01T08:49:51.018Z,98855.54
2019-05-01T08:52:20.272Z,98853.95
2019-05-01T08:54:48.998Z,98852.88
2019-05-01T08:57:17.727Z,98848.52
2019-05-01T08:59:46.705Z,98852.56
2019-05-01T09:02:15.403Z,98840.84
2019-05-01T09:04:44.128Z,98844.20
2019-05-01T09:07:14.680Z,98846.39
2019-05-01T09:09:45.446Z,98846.96
2019-05-01T09:12:14.663Z,98844.89
2019-05-01T09:14:43.442Z,98848.53
2019-05-01T09:17:12.162Z,98843.05
2019-05-01T09:19:40.890Z,98843.97
2019-05-01T09:22:09.744Z,98845.28
2019-05-01T09:24:38.455Z,98847.05
2019-05-01T09:27:24.023Z,98852.28
2019-05-01T09:29:53.366Z,98839.50
2019-05-01T09:32:22.186Z,98837.41
2019-05-01T09:34:50.976Z,98833.70
2019-05-01T09:37:19.700Z,98821.42
2019-05-01T09:39:48.526Z,98823.04
2019-05-01T09:42:22.897Z,98820.23
2019-05-01T09:44:48.027Z,98826.30
2019-05-01T09:47:16.845Z,98816.00
2019-05-01T09:49:48.679Z,98811.22
2019-05-01T09:52:29.980Z,98810.83
2019-05-01T09:55:01.158Z,98807.00
2019-05-01T09:57:29.882Z,98798.54
2019-05-01T09:59:58.607Z,98795.63
2019-05-01T10:02:27.447Z,98795.27
2019-05-01T10:04:56.173Z,98798.20
2019-05-01T10:07:28.862Z,98793.20
2019-05-01T10:09:55.402Z,98794.75
2019-05-01T10:12:24.124Z,98796.29
2019-05-01T10:14:52.952Z,98792.08
2019-05-01T10:17:21.830Z,98789.37
2019-05-01T10:19:50.551Z,98782.60
2019-05-01T10:22:19.311Z,98774.80
2019-05-01T10:24:48.941Z,98783.90
2019-05-01T10:27:19.224Z,98777.34
2019-05-01T10:29:49.511Z,98776.25
2019-05-01T10:32:23.239Z,98770.77
2019-05-01T10:34:56.421Z,98778.31
2019-05-01T10:37:28.519Z,98775.28
2019-05-01T10:39:55.426Z,98767.96
2019-05-01T10:42:24.289Z,98764.02
2019-05-01T10:44:53.022Z,98765.69
2019-05-01T10:47:21.847Z,98774.21
2019-05-01T10:49:50.565Z,98757.64
2019-05-01T10:52:19.277Z,98758.41
2019-05-01T10:54:49.033Z,98763.48
2019-05-01T10:57:17.753Z,98757.00
2019-05-01T10:59:46.525Z,98759.19
2019-05-01T11:02:16.917Z,98768.56
2019-05-01T11:04:45.635Z,98765.16
2019-05-01T11:07:14.348Z,98762.90
2019-05-01T11:09:43.204Z,98770.64
2019-05-01T11:12:11.915Z,98766.52
2019-05-01T11:14:40.628Z,98770.16
2019-05-01T11:17:09.588Z,98763.10
2019-05-01T11:19:38.306Z,98761.22
2019-05-01T11:22:07.034Z,98758.73
2019-05-01T11:24:35.822Z,98753.30
2019-05-01T11:27:04.541Z,98754.56
2019-05-01T11:29:33.257Z,98750.06
2019-05-01T11:32:09.431Z,98745.29
2019-05-01T11:34:45.733Z,98744.39
2019-05-01T11:37:33.454Z,98745.17
2019-05-01T11:40:12.613Z,98732.58
2019-05-01T11:42:42.296Z,98744.73
2019-05-01T11:45:11.814Z,98731.33
2019-05-01T11:47:40.531Z,98732.22
2019-05-01T11:50:09.415Z,98728.66
2019-05-01T11:52:38.141Z,98731.72
2019-05-01T11:55:07.106Z,98722.09
2019-05-01T11:57:35.946Z,98716.50
2019-05-01T12:00:14.339Z,98710.95
2019-05-01T12:02:43.194Z,98710.46
2019-05-01T12:05:12.120Z,98710.44
2019-05-01T12:07:40.837Z,98705.97
2019-05-01T12:10:09.803Z,98706.83
2019-05-01T12:12:38.524Z,98702.77
2019-05-01T12:15:08.639Z,98707.14
2019-05-01T12:17:39.936Z,98704.71
2019-05-01T12:20:09.265Z,98708.94
2019-05-01T12:22:37.987Z,98702.67
2019-05-01T12:25:06.967Z,98688.92
2019-05-01T12:27:35.688Z,98690.69
2019-05-01T12:30:07.010Z,98691.43
2019-05-01T12:32:35.977Z,98681.41
2019-05-01T12:35:05.597Z,98683.36
2019-05-01T12:37:36.192Z,98678.90
2019-05-01T12:40:07.077Z,98673.20
2019-05-01T12:42:36.203Z,98668.48
2019-05-01T12:45:08.328Z,98669.30
2019-05-01T12:47:38.777Z,98654.18
2019-05-01T12:50:10.290Z,98660.07
2019-05-01T12:52:43.894Z,98652.11
2019-05-01T12:55:14.292Z,98649.15
2019-05-01T12:57:43.016Z,98647.16
2019-05-01T13:00:19.819Z,98641.35
2019-05-01T13:02:49.759Z,98647.79
2019-05-01T13:05:18.467Z,98648.12
2019-05-01T13:07:47.306Z,98644.63
2019-05-01T13:10:16.024Z,98643.56
2019-05-01T13:12:44.740Z,98643.56
2019-05-01T13:15:13.759Z,98653.62
2019-05-01T13:17:42.490Z,98639.75
2019-05-01T13:20:11.209Z,98638.00
2019-05-01T13:22:40.083Z,98635.80
2019-05-01T13:25:08.905Z,98635.14
2019-05-01T13:27:39.194Z,98629.66
2019-05-01T13:30:20.264Z,98630.58
2019-05-01T13:32:53.302Z,98619.27
2019-05-01T13:35:22.014Z,98618.86
2019-05-01T13:37:50.887Z,98619.23
2019-05-01T13:40:20.302Z,98614.37
2019-05-01T13:42:49.029Z,98617.07
2019-05-01T13:45:18.202Z,98610.44
2019-05-01T13:47:46.935Z,98609.28
2019-05-01T13:50:15.765Z,98609.97
2019-05-01T13:52:44.630Z,98608.76
2019-05-01T13:55:13.747Z,98612.38
2019-05-01T13:57:42.467Z,98607.63
2019-05-01T14:00:12.646Z,98606.08
2019-05-01T14:02:41.624Z,98614.15
2019-05-01T14:05:10.631Z,98608.79
2019-05-01T14:07:39.635Z,98610.98
2019-05-01T14:10:08.651Z,98609.20
2019-05-01T14:12:37.364Z,98601.91
2019-05-01T14:15:06.357Z,98605.04
2019-05-01T14:17:35.075Z,98604.98
2019-05-01T14:20:08.693Z,98604.41
2019-05-01T14:22:39.862Z,98606.41
2019-05-01T14:25:10.493Z,98599.53
2019-05-01T14:27:39.234Z,98597.39
2019-05-01T14:30:10.696Z,98600.30
2019-05-01T14:32:39.415Z,98594.89
2019-05-01T14:35:09.343Z,98599.37
2019-05-01T14:37:38.211Z,98602.15
2019-05-01T14:40:08.037Z,98596.02
2019-05-01T14:42:36.758Z,98591.28
2019-05-01T14:45:13.075Z,98587.37
2019-05-01T14:47:41.789Z,98581.79
2019-05-01T14:50:10.716Z,98585.80
2019-05-01T14:52:39.468Z,98583.66
2019-05-01T14:55:08.296Z,98582.48
2019-05-01T14:57:37.015Z,98581.68
2019-05-01T15:00:08.040Z,98575.15
2019-05-01T15:02:36.769Z,98572.14
2019-05-01T15:05:07.164Z,98570.34
2019-05-01T15:07:43.364Z,98570.16
2019-05-01T15:10:07.298Z,98572.56
2019-05-01T15:12:36.022Z,98567.92
2019-05-01T15:15:08.623Z,98563.20
2019-05-01T15:17:38.915Z,98561.63
2019-05-01T15:20:07.836Z,98559.63
2019-05-01T15:22:36.589Z,98567.14
2019-05-01T15:25:06.703Z,98566.52
2019-05-01T15:27:35.425Z,98568.56
2019-05-01T15:30:06.518Z,98567.86
2019-05-01T15:32:35.231Z,98571.88
2019-05-01T15:35:04.742Z,98567.90
2019-05-01T15:37:35.325Z,98569.83
2019-05-01T15:40:07.713Z,98564.02
2019-05-01T15:42:38.240Z,98570.66
2019-05-01T15:45:08.257Z,98572.38
2019-05-01T15:47:36.974Z,98571.65
2019-05-01T15:50:07.778Z,98569.75
2019-05-01T15:52:36.499Z,98571.44
2019-05-01T15:55:07.718Z,98572.62
2019-05-01T15:57:36.499Z,98574.45
2019-05-01T16:00:11.641Z,98572.25
2019-05-01T16:02:40.353Z,98576.97
2019-05-01T16:05:09.223Z,98578.19
2019-05-01T16:07:37.991Z,98575.37
2019-05-01T16:10:08.987Z,98581.06
2019-05-01T16:12:39.416Z,98576.36
2019-05-01T16:15:11.009Z,98578.64
2019-05-01T16:17:39.736Z,98583.61
2019-05-01T16:20:08.776Z,98585.91
2019-05-01T16:22:37.496Z,98587.89
2019-05-01T16:25:07.516Z,98593.42
2019-05-01T16:27:36.370Z,98589.67
2019-05-01T16:30:06.488Z,98596.24
2019-05-01T16:32:35.307Z,98597.41
2019-05-01T16:35:05.315Z,98601.36
2019-05-01T16:37:34.132Z,98594.44
2019-05-01T16:40:07.276Z,98599.98
2019-05-01T16:42:36.261Z,98597.53
2019-05-01T16:45:06.387Z,98598.27
2019-05-01T16:47:35.105Z,98603.41
2019-05-01T16:50:05.366Z,98602.66
2019-05-01T16:52:35.084Z,98597.20
2019-05-01T16:55:05.201Z,98608.76
2019-05-01T16:57:33.992Z,98612.73
2019-05-01T17:00:02.806Z,98612.01
2019-05-01T17:02:33.199Z,98609.95
2019-05-01T17:05:03.530Z,98612.82
2019-05-01T17:07:36.550Z,98610.76
2019-05-01T17:10:14.656Z,98625.18
2019-05-01T17:12:44.946Z,98623.45
2019-05-01T17:15:13.869Z,98634.98
2019-05-01T17:17:43.643Z,98635.37
2019-05-01T17:20:12.949Z,98638.00
2019-05-01T17:22:41.685Z,98636.30
2019-05-01T17:25:10.661Z,98642.16
2019-05-01T17:27:39.384Z,98638.77
2019-05-01T17:30:14.200Z,98645.94
2019-05-01T17:32:46.919Z,98646.52
2019-05-01T17:35:15.710Z,98647.26
2019-05-01T17:37:44.445Z,98649.52
2019-05-01T17:40:13.560Z,98654.48
2019-05-01T17:42:42.287Z,98650.09
2019-05-01T17:45:11.204Z,98651.59
2019-05-01T17:47:39.965Z,98656.34
2019-05-01T17:50:08.678Z,98654.98
2019-05-01T17:52:37.403Z,98657.80
2019-05-01T17:55:07.464Z,98655.92
2019-05-01T17:57:36.174Z,98668.80
2019-05-01T18:00:18.083Z,98675.93
2019-05-01T18:02:48.367Z,98675.34
2019-05-01T18:05:18.660Z,98680.51
2019-05-01T18:07:47.448Z,98683.84
2019-05-01T18:10:16.166Z,98688.25
2019-05-01T18:12:44.932Z,98689.94
2019-05-01T18:15:13.887Z,98693.39
2019-05-01T18:17:42.607Z,98700.83
2019-05-01T18:20:11.533Z,98699.44
2019-05-01T18:22:57.980Z,98703.63
2019-05-01T18:25:46.418Z,98708.55
2019-05-01T18:28:25.078Z,98712.55
2019-05-01T18:30:56.438Z,98721.49
2019-05-01T18:33:25.998Z,98722.50
2019-05-01T18:35:55.257Z,98722.94
2019-05-01T18:38:34.819Z,98729.03
2019-05-01T18:41:08.063Z,98724.62
2019-05-01T18:43:36.779Z,98737.58
2019-05-01T18:46:08.216Z,98743.98
2019-05-01T18:48:37.111Z,98745.42
2019-05-01T18:51:05.831Z,98745.77
2019-05-01T18:53:34.557Z,98757.66
2019-05-01T18:56:05.496Z,98753.97
2019-05-01T18:58:33.831Z,98756.56
2019-05-01T19:01:03.980Z,98766.65
2019-05-01T19:03:37.158Z,98766.55
2019-05-01T19:06:03.577Z,98764.16
2019-05-01T19:08:32.305Z,98772.86
2019-05-01T19:11:11.766Z,98775.69
2019-05-01T19:13:32.141Z,98772.95
2019-05-01T19:16:03.297Z,98768.55
2019-05-01T19:18:32.795Z,98773.17
2019-05-01T19:21:01.548Z,98773.02
2019-05-01T19:23:33.208Z,98774.86
2019-05-01T19:26:05.030Z,98788.17
2019-05-01T19:28:31.240Z,98780.78
2019-05-01T19:31:00.061Z,98789.48
2019-05-01T19:33:28.928Z,98784.72
2019-05-01T19:35:57.664Z,98791.17
2019-05-01T19:38:29.505Z,98786.17
2019-05-01T19:40:56.949Z,98776.21
2019-05-01T19:43:25.667Z,98780.27
2019-05-01T19:45:54.613Z,98787.34
2019-05-01T19:48:23.434Z,98787.66
2019-05-01T19:50:52.148Z,98794.94
2019-05-01T19:53:20.978Z,98790.81
2019-05-01T19:55:49.854Z,98790.30
2019-05-01T19:58:18.577Z,98788.27
2019-05-01T20:00:55.846Z,98788.81
2019-05-01T20:03:25.138Z,98791.62
2019-05-01T20:05:53.847Z,98792.66
2019-05-01T20:08:22.713Z,98792.88
2019-05-01T20:10:51.423Z,98793.70
2019-05-01T20:13:20.148Z,98799.77
2019-05-01T20:15:49.088Z,98797.34
2019-05-01T20:18:18.014Z,98797.45
2019-05-01T20:20:46.726Z,98795.47
2019-05-01T20:23:15.546Z,98798.96
2019-05-01T20:25:44.259Z,98802.71
2019-05-01T20:28:12.977Z,98800.47
2019-05-01T20:30:42.520Z,98800.98
2019-05-01T20:33:11.294Z,98805.31
2019-05-01T20:35:40.058Z,98802.89
2019-05-01T20:38:08.896Z,98806.81
2019-05-01T20:40:37.712Z,98814.86
2019-05-01T20:43:07.333Z,98813.48
2019-05-01T20:45:36.527Z,98816.66
2019-05-01T20:48:05.378Z,98818.39
2019-05-01T20:50:34.101Z,98817.86
2019-05-01T20:53:03.704Z,98818.14
2019-05-01T20:55:32.423Z,98818.86
2019-05-01T20:58:21.388Z,98822.66
2019-05-01T21:00:53.469Z,98827.61
2019-05-01T21:03:22.312Z,98826.00
2019-05-01T21:05:55.581Z,98828.28
2019-05-01T21:08:29.062Z,98828.25
2019-05-01T21:11:00.815Z,98823.80
2019-05-01T21:13:29.548Z,98826.31
2019-05-01T21:16:01.778Z,98826.95
2019-05-01T21:18:28.702Z,98829.84
2019-05-01T21:20:57.384Z,98826.78
2019-05-01T21:23:26.115Z,98827.01
2019-05-01T21:25:54.908Z,98837.19
2019-05-01T21:28:24.088Z,98838.23
2019-05-01T21:30:54.384Z,98843.16
2019-05-01T21:33:23.881Z,98844.44
2019-05-01T21:35:53.384Z,98846.16
2019-05-01T21:38:22.096Z,98841.78
2019-05-01T21:40:50.894Z,98842.69
2019-05-01T21:43:19.619Z,98842.69
2019-05-01T21:45:48.339Z,98845.72
2019-05-01T21:48:17.085Z,98844.95
2019-05-01T21:50:45.803Z,98846.91
2019-05-01T21:53:14.515Z,98846.55
2019-05-01T21:55:43.384Z,98847.23
2019-05-01T21:58:12.101Z,98850.41
2019-05-01T22:00:41.822Z,98845.61
2019-05-01T22:03:12.203Z,98847.80
2019-05-01T22:05:41.013Z,98849.59
2019-05-01T22:08:09.735Z,98849.44
2019-05-01T22:10:50.753Z,98850.23
2019-05-01T22:13:09.109Z,98849.87
2019-05-01T22:15:42.069Z,98843.90
2019-05-01T22:18:11.573Z,98843.26
2019-05-01T22:20:44.985Z,98846.21
2019-05-01T22:23:17.099Z,98847.27
2019-05-01T22:25:47.519Z,98848.45
2019-05-01T22:28:23.620Z,98845.88
2019-05-01T22:31:10.179Z,98846.05
2019-05-01T22:33:40.226Z,98840.94
2019-05-01T22:36:08.931Z,98838.41
2019-05-01T22:38:37.648Z,98839.01
2019-05-01T22:41:11.006Z,98833.03
2019-05-01T22:43:39.723Z,98833.39
2019-05-01T22:46:10.005Z,98839.75
2019-05-01T22:48:38.791Z,98830.11
2019-05-01T22:51:21.327Z,98831.91
2019-05-01T22:53:51.798Z,98832.27
2019-05-01T22:56:20.519Z,98826.06
2019-05-01T22:58:49.234Z,98822.46
2019-05-01T23:01:19.332Z,98816.48
2019-05-01T23:03:49.783Z,98825.83
2019-05-01T23:06:18.809Z,98817.92
2019-05-01T23:08:47.861Z,98824.31
2019-05-01T23:11:20.269Z,98819.66
2019-05-01T23:13:47.050Z,98815.06
2019-05-01T23:16:16.815Z,98819.88
2019-05-01T23:18:47.077Z,98821.45
2019-05-01T23:21:16.163Z,98821.70
2019-05-01T23:23:44.977Z,98821.38
2019-05-01T23:26:16.546Z,98823.99
2019-05-01T23:28:44.335Z,98820.14
2019-05-01T23:31:13.283Z,98821.88
2019-05-01T23:33:45.752Z,98825.48
2019-05-01T23:36:22.913Z,98832.96
2019-05-01T23:38:42.915Z,98825.88
2019-05-01T23:41:13.645Z,98828.72
2019-05-01T23:43:42.367Z,98829.43
2019-05-01T23:46:11.220Z,98835.64
2019-05-01T23:48:39.941Z,98830.62
2019-05-01T23:51:08.656Z,98829.14
2019-05-01T23:53:37.418Z,98839.84
2019-05-01T23:56:06.133Z,98835.23
2019-05-01T23:58:34.850Z,98839.47
